sensor_id;sensor_type;location;lat;lon;timestamp;pressure;altitude;pressure_sealevel;temperature;humidity
58785;BME280;44557;51.862;19.378;2024-03-08T00:00:25;100013.74;;;1.67;84.84
58785;BME280;44557;51.862;19.378;2024-03-08T00:02:47;100004.79;;;1.75;84.67
58785;BME280;44557;51.862;19.378;2024-03-08T00:04:49;100010.82;;;1.65;84.85
58785;BME280;44557;51.862;19.378;2024-03-08T00:06:50;100007.77;;;1.64;84.81
58785;BME280;44557;51.862;19.378;2024-03-08T00:08:53;100004.95;;;1.59;85.07
58785;BME280;44557;51.862;19.378;2024-03-08T00:10:55;100002.29;;;1.66;85.13
58785;BME280;44557;51.862;19.378;2024-03-08T00:12:57;100002.02;;;1.58;85.21
58785;BME280;44557;51.862;19.378;2024-03-08T00:14:59;100000.98;;;1.52;85.63
58785;BME280;44557;51.862;19.378;2024-03-08T00:17:01;100001.36;;;1.56;85.22
58785;BME280;44557;51.862;19.378;2024-03-08T00:19:03;99997.23;;;1.56;85.38
58785;BME280;44557;51.862;19.378;2024-03-08T00:21:04;99998.27;;;1.61;85.33
58785;BME280;44557;51.862;19.378;2024-03-08T00:23:06;99998.81;;;1.60;85.58
58785;BME280;44557;51.862;19.378;2024-03-08T00:25:08;99995.13;;;1.64;84.74
58785;BME280;44557;51.862;19.378;2024-03-08T00:27:16;99995.34;;;1.62;85.08
58785;BME280;44557;51.862;19.378;2024-03-08T00:29:18;99996.42;;;1.46;85.82
58785;BME280;44557;51.862;19.378;2024-03-08T00:31:20;99998.48;;;1.51;85.90
58785;BME280;44557;51.862;19.378;2024-03-08T00:33:22;99991.16;;;1.36;86.35
58785;BME280;44557;51.862;19.378;2024-03-08T00:35:23;99990.79;;;1.37;86.87
58785;BME280;44557;51.862;19.378;2024-03-08T00:37:25;99993.16;;;1.55;85.58
58785;BME280;44557;51.862;19.378;2024-03-08T00:39:27;99995.78;;;1.54;85.56
58785;BME280;44557;51.862;19.378;2024-03-08T00:41:28;99992.19;;;1.43;85.93
58785;BME280;44557;51.862;19.378;2024-03-08T00:43:30;99987.80;;;1.35;86.34
58785;BME280;44557;51.862;19.378;2024-03-08T00:45:32;99985.67;;;1.26;86.86
58785;BME280;44557;51.862;19.378;2024-03-08T00:47:34;99985.52;;;1.27;86.90
58785;BME280;44557;51.862;19.378;2024-03-08T00:49:36;99988.66;;;1.46;86.31
58785;BME280;44557;51.862;19.378;2024-03-08T00:51:39;99988.28;;;1.45;85.35
58785;BME280;44557;51.862;19.378;2024-03-08T00:53:41;99985.91;;;1.45;85.69
58785;BME280;44557;51.862;19.378;2024-03-08T00:55:44;99987.80;;;1.43;85.76
58785;BME280;44557;51.862;19.378;2024-03-08T00:57:47;99985.73;;;1.45;85.71
58785;BME280;44557;51.862;19.378;2024-03-08T00:59:49;99983.51;;;1.46;85.43
58785;BME280;44557;51.862;19.378;2024-03-08T01:01:51;99976.92;;;1.36;85.90
58785;BME280;44557;51.862;19.378;2024-03-08T01:03:52;99977.77;;;1.30;86.45
58785;BME280;44557;51.862;19.378;2024-03-08T01:05:54;99973.95;;;1.31;86.18
58785;BME280;44557;51.862;19.378;2024-03-08T01:07:56;99977.73;;;1.16;86.98
58785;BME280;44557;51.862;19.378;2024-03-08T01:09:57;99977.42;;;1.23;86.95
58785;BME280;44557;51.862;19.378;2024-03-08T01:11:59;99976.05;;;1.11;87.40
58785;BME280;44557;51.862;19.378;2024-03-08T01:14:02;99974.01;;;1.26;87.06
58785;BME280;44557;51.862;19.378;2024-03-08T01:16:04;99976.35;;;1.28;86.63
58785;BME280;44557;51.862;19.378;2024-03-08T01:18:06;99973.84;;;1.31;86.42
58785;BME280;44557;51.862;19.378;2024-03-08T01:20:08;99973.80;;;1.34;86.08
58785;BME280;44557;51.862;19.378;2024-03-08T01:22:12;99972.15;;;1.51;85.31
58785;BME280;44557;51.862;19.378;2024-03-08T01:24:14;99972.60;;;1.50;84.46
58785;BME280;44557;51.862;19.378;2024-03-08T01:26:16;99974.02;;;1.38;85.60
58785;BME280;44557;51.862;19.378;2024-03-08T01:28:17;99974.88;;;1.36;85.44
58785;BME280;44557;51.862;19.378;2024-03-08T01:30:19;99974.55;;;1.45;85.08
58785;BME280;44557;51.862;19.378;2024-03-08T01:32:21;99969.98;;;1.46;84.75
58785;BME280;44557;51.862;19.378;2024-03-08T01:34:25;99967.45;;;1.51;84.62
58785;BME280;44557;51.862;19.378;2024-03-08T01:36:27;99967.16;;;1.40;85.17
58785;BME280;44557;51.862;19.378;2024-03-08T01:38:29;99964.77;;;1.33;85.32
58785;BME280;44557;51.862;19.378;2024-03-08T01:40:30;99960.83;;;1.26;85.95
58785;BME280;44557;51.862;19.378;2024-03-08T01:42:32;99965.10;;;1.33;85.70
58785;BME280;44557;51.862;19.378;2024-03-08T01:44:34;99961.35;;;1.17;86.24
58785;BME280;44557;51.862;19.378;2024-03-08T01:46:36;99958.48;;;1.13;86.68
58785;BME280;44557;51.862;19.378;2024-03-08T01:48:39;99962.11;;;1.11;86.57
58785;BME280;44557;51.862;19.378;2024-03-08T01:50:42;99958.33;;;1.14;86.81
58785;BME280;44557;51.862;19.378;2024-03-08T01:52:44;99960.92;;;1.13;86.57
58785;BME280;44557;51.862;19.378;2024-03-08T01:54:47;99959.38;;;0.96;87.30
58785;BME280;44557;51.862;19.378;2024-03-08T01:56:49;99956.19;;;0.80;88.51
58785;BME280;44557;51.862;19.378;2024-03-08T01:58:51;99956.09;;;0.79;88.74
58785;BME280;44557;51.862;19.378;2024-03-08T02:00:53;99953.92;;;0.76;88.56
58785;BME280;44557;51.862;19.378;2024-03-08T02:02:54;99954.50;;;0.69;89.07
58785;BME280;44557;51.862;19.378;2024-03-08T02:04:56;99955.73;;;0.66;89.17
58785;BME280;44557;51.862;19.378;2024-03-08T02:06:59;99952.64;;;0.66;89.51
58785;BME280;44557;51.862;19.378;2024-03-08T02:09:00;99954.87;;;0.64;89.63
58785;BME280;44557;51.862;19.378;2024-03-08T02:11:07;99952.95;;;0.57;89.38
58785;BME280;44557;51.862;19.378;2024-03-08T02:13:10;99951.75;;;0.55;89.42
58785;BME280;44557;51.862;19.378;2024-03-08T02:15:13;99949.05;;;0.60;89.61
58785;BME280;44557;51.862;19.378;2024-03-08T02:17:14;99954.63;;;0.62;89.32
58785;BME280;44557;51.862;19.378;2024-03-08T02:19:16;99946.88;;;0.55;89.21
58785;BME280;44557;51.862;19.378;2024-03-08T02:21:18;99948.64;;;0.52;89.60
58785;BME280;44557;51.862;19.378;2024-03-08T02:23:20;99946.90;;;0.45;89.62
58785;BME280;44557;51.862;19.378;2024-03-08T02:25:22;99947.32;;;0.44;90.14
58785;BME280;44557;51.862;19.378;2024-03-08T02:27:25;99947.07;;;0.50;89.78
58785;BME280;44557;51.862;19.378;2024-03-08T02:29:27;99945.98;;;0.46;90.02
58785;BME280;44557;51.862;19.378;2024-03-08T02:31:28;99947.33;;;0.46;90.20
58785;BME280;44557;51.862;19.378;2024-03-08T02:33:30;99946.95;;;0.43;89.94
58785;BME280;44557;51.862;19.378;2024-03-08T02:35:32;99945.95;;;0.38;90.14
58785;BME280;44557;51.862;19.378;2024-03-08T02:37:34;99947.00;;;0.43;89.85
58785;BME280;44557;51.862;19.378;2024-03-08T02:39:36;99942.64;;;0.52;89.26
58785;BME280;44557;51.862;19.378;2024-03-08T02:41:37;99942.77;;;0.46;89.28
58785;BME280;44557;51.862;19.378;2024-03-08T02:43:39;99946.52;;;0.43;89.34
58785;BME280;44557;51.862;19.378;2024-03-08T02:45:41;99942.75;;;0.39;89.55
58785;BME280;44557;51.862;19.378;2024-03-08T02:47:43;99943.55;;;0.33;90.04
58785;BME280;44557;51.862;19.378;2024-03-08T02:49:45;99939.94;;;0.38;90.12
58785;BME280;44557;51.862;19.378;2024-03-08T02:51:47;99940.77;;;0.28;90.26
58785;BME280;44557;51.862;19.378;2024-03-08T02:53:48;99939.24;;;0.29;90.29
58785;BME280;44557;51.862;19.378;2024-03-08T02:55:54;99936.93;;;0.32;90.39
58785;BME280;44557;51.862;19.378;2024-03-08T02:57:56;99936.14;;;0.36;89.86
58785;BME280;44557;51.862;19.378;2024-03-08T02:59:58;99935.16;;;0.41;89.63
58785;BME280;44557;51.862;19.378;2024-03-08T03:02:01;99937.98;;;0.39;89.26
58785;BME280;44557;51.862;19.378;2024-03-08T03:04:02;99937.45;;;0.26;89.51
58785;BME280;44557;51.862;19.378;2024-03-08T03:06:04;99937.51;;;0.26;89.73
58785;BME280;44557;51.862;19.378;2024-03-08T03:08:08;99934.40;;;0.22;89.63
58785;BME280;44557;51.862;19.378;2024-03-08T03:10:10;99932.73;;;0.27;89.65
58785;BME280;44557;51.862;19.378;2024-03-08T03:12:13;99936.14;;;0.22;89.85
58785;BME280;44557;51.862;19.378;2024-03-08T03:14:16;99932.46;;;0.17;89.98
58785;BME280;44557;51.862;19.378;2024-03-08T03:16:21;99930.13;;;0.13;90.21
58785;BME280;44557;51.862;19.378;2024-03-08T03:18:23;99930.54;;;0.17;89.99
58785;BME280;44557;51.862;19.378;2024-03-08T03:20:25;99927.81;;;0.14;90.29
58785;BME280;44557;51.862;19.378;2024-03-08T03:22:34;99930.73;;;0.12;90.50
58785;BME280;44557;51.862;19.378;2024-03-08T03:24:36;99929.86;;;0.11;90.54
58785;BME280;44557;51.862;19.378;2024-03-08T03:26:39;99928.78;;;0.12;90.04
58785;BME280;44557;51.862;19.378;2024-03-08T03:28:42;99923.66;;;0.07;90.79
58785;BME280;44557;51.862;19.378;2024-03-08T03:30:45;99925.99;;;0.20;90.40
58785;BME280;44557;51.862;19.378;2024-03-08T03:32:48;99927.30;;;0.21;90.08
58785;BME280;44557;51.862;19.378;2024-03-08T03:34:52;99927.05;;;0.16;90.60
58785;BME280;44557;51.862;19.378;2024-03-08T03:36:54;99924.81;;;0.08;91.07
58785;BME280;44557;51.862;19.378;2024-03-08T03:38:57;99928.23;;;0.12;90.85
58785;BME280;44557;51.862;19.378;2024-03-08T03:41:14;99928.34;;;0.14;90.55
58785;BME280;44557;51.862;19.378;2024-03-08T03:43:16;99929.70;;;0.13;90.77
58785;BME280;44557;51.862;19.378;2024-03-08T03:45:17;99933.08;;;0.16;90.79
58785;BME280;44557;51.862;19.378;2024-03-08T03:47:21;99931.96;;;0.09;90.62
58785;BME280;44557;51.862;19.378;2024-03-08T03:49:23;99934.61;;;0.08;90.79
58785;BME280;44557;51.862;19.378;2024-03-08T03:51:25;99931.88;;;0.15;90.75
58785;BME280;44557;51.862;19.378;2024-03-08T03:53:27;99930.16;;;0.18;90.50
58785;BME280;44557;51.862;19.378;2024-03-08T03:55:29;99925.88;;;0.16;90.66
58785;BME280;44557;51.862;19.378;2024-03-08T03:57:31;99930.71;;;0.12;90.98
58785;BME280;44557;51.862;19.378;2024-03-08T03:59:32;99927.83;;;0.06;90.89
58785;BME280;44557;51.862;19.378;2024-03-08T04:01:34;99922.77;;;0.02;90.88
58785;BME280;44557;51.862;19.378;2024-03-08T04:03:36;99928.95;;;0.02;90.58
58785;BME280;44557;51.862;19.378;2024-03-08T04:05:40;99925.79;;;-0.01;90.85
58785;BME280;44557;51.862;19.378;2024-03-08T04:07:42;99922.50;;;-0.00;90.61
58785;BME280;44557;51.862;19.378;2024-03-08T04:09:44;99923.34;;;-0.04;90.74
58785;BME280;44557;51.862;19.378;2024-03-08T04:11:46;99919.14;;;-0.09;90.99
58785;BME280;44557;51.862;19.378;2024-03-08T04:13:47;99922.95;;;-0.06;91.23
58785;BME280;44557;51.862;19.378;2024-03-08T04:15:49;99922.35;;;-0.09;91.16
58785;BME280;44557;51.862;19.378;2024-03-08T04:17:53;99918.65;;;-0.11;91.20
58785;BME280;44557;51.862;19.378;2024-03-08T04:19:56;99915.36;;;-0.09;91.33
58785;BME280;44557;51.862;19.378;2024-03-08T04:21:58;99917.52;;;0.01;90.67
58785;BME280;44557;51.862;19.378;2024-03-08T04:24:00;99912.38;;;0.03;90.83
58785;BME280;44557;51.862;19.378;2024-03-08T04:26:03;99911.29;;;-0.10;90.84
58785;BME280;44557;51.862;19.378;2024-03-08T04:28:05;99913.95;;;-0.08;90.81
58785;BME280;44557;51.862;19.378;2024-03-08T04:30:08;99915.77;;;-0.01;90.75
58785;BME280;44557;51.862;19.378;2024-03-08T04:32:10;99914.25;;;-0.05;90.68
58785;BME280;44557;51.862;19.378;2024-03-08T04:34:11;99911.19;;;-0.11;90.66
58785;BME280;44557;51.862;19.378;2024-03-08T04:36:13;99915.20;;;-0.08;90.51
58785;BME280;44557;51.862;19.378;2024-03-08T04:38:15;99917.09;;;-0.11;90.57
58785;BME280;44557;51.862;19.378;2024-03-08T04:40:17;99911.39;;;-0.12;90.67
58785;BME280;44557;51.862;19.378;2024-03-08T04:42:20;99918.16;;;-0.13;90.73
58785;BME280;44557;51.862;19.378;2024-03-08T04:44:23;99912.59;;;-0.11;90.71
58785;BME280;44557;51.862;19.378;2024-03-08T04:46:26;99914.31;;;-0.14;90.82
58785;BME280;44557;51.862;19.378;2024-03-08T04:48:29;99912.98;;;-0.09;90.81
58785;BME280;44557;51.862;19.378;2024-03-08T04:50:31;99907.67;;;-0.10;90.64
58785;BME280;44557;51.862;19.378;2024-03-08T04:52:32;99915.51;;;-0.11;90.78
58785;BME280;44557;51.862;19.378;2024-03-08T04:54:35;99914.81;;;-0.12;90.67
58785;BME280;44557;51.862;19.378;2024-03-08T04:56:37;99912.25;;;-0.12;90.32
58785;BME280;44557;51.862;19.378;2024-03-08T04:58:38;99913.13;;;-0.20;90.20
58785;BME280;44557;51.862;19.378;2024-03-08T05:00:40;99912.69;;;-0.22;90.22
58785;BME280;44557;51.862;19.378;2024-03-08T05:02:42;99914.24;;;-0.15;90.03
58785;BME280;44557;51.862;19.378;2024-03-08T05:04:44;99913.67;;;-0.18;90.43
58785;BME280;44557;51.862;19.378;2024-03-08T05:06:47;99913.84;;;-0.21;90.23
58785;BME280;44557;51.862;19.378;2024-03-08T05:08:48;99912.73;;;-0.23;89.71
58785;BME280;44557;51.862;19.378;2024-03-08T05:10:50;99912.09;;;-0.24;89.90
58785;BME280;44557;51.862;19.378;2024-03-08T05:12:52;99914.66;;;-0.17;89.48
58785;BME280;44557;51.862;19.378;2024-03-08T05:14:54;99910.16;;;-0.19;90.00
58785;BME280;44557;51.862;19.378;2024-03-08T05:16:56;99909.65;;;-0.15;89.60
58785;BME280;44557;51.862;19.378;2024-03-08T05:18:59;99905.70;;;0.01;89.00
58785;BME280;44557;51.862;19.378;2024-03-08T05:21:00;99908.69;;;0.01;88.87
58785;BME280;44557;51.862;19.378;2024-03-08T05:23:05;99907.73;;;-0.07;89.41
58785;BME280;44557;51.862;19.378;2024-03-08T05:25:08;99908.49;;;-0.03;89.91
58785;BME280;44557;51.862;19.378;2024-03-08T05:27:10;99910.84;;;0.45;88.66
58785;BME280;44557;51.862;19.378;2024-03-08T05:29:13;99911.80;;;0.94;86.26
58785;BME280;44557;51.862;19.378;2024-03-08T05:31:22;99910.49;;;1.36;84.12
58785;BME280;44557;51.862;19.378;2024-03-08T05:33:31;99908.27;;;1.86;81.87
58785;BME280;44557;51.862;19.378;2024-03-08T05:35:33;99903.48;;;2.37;79.43
58785;BME280;44557;51.862;19.378;2024-03-08T05:37:35;99903.88;;;2.71;77.30
58785;BME280;44557;51.862;19.378;2024-03-08T05:39:36;99901.46;;;3.25;74.51
58785;BME280;44557;51.862;19.378;2024-03-08T05:41:39;99902.30;;;3.69;72.40
58785;BME280;44557;51.862;19.378;2024-03-08T05:43:41;99903.20;;;4.15;70.16
58785;BME280;44557;51.862;19.378;2024-03-08T05:45:43;99904.73;;;4.72;67.58
58785;BME280;44557;51.862;19.378;2024-03-08T05:47:45;99899.40;;;5.04;65.87
58785;BME280;44557;51.862;19.378;2024-03-08T05:49:47;99899.05;;;5.62;63.40
58785;BME280;44557;51.862;19.378;2024-03-08T05:51:49;99898.64;;;6.19;61.16
58785;BME280;44557;51.862;19.378;2024-03-08T05:53:51;99895.61;;;7.59;56.08
58785;BME280;44557;51.862;19.378;2024-03-08T05:55:55;99894.78;;;7.82;54.47
58785;BME280;44557;51.862;19.378;2024-03-08T05:57:56;99897.27;;;7.74;54.66
58785;BME280;44557;51.862;19.378;2024-03-08T05:59:58;99900.06;;;8.20;53.45
58785;BME280;44557;51.862;19.378;2024-03-08T06:02:00;99900.64;;;8.77;51.23
58785;BME280;44557;51.862;19.378;2024-03-08T06:04:03;99901.21;;;9.50;48.77
58785;BME280;44557;51.862;19.378;2024-03-08T06:06:06;99902.43;;;10.27;46.25
58785;BME280;44557;51.862;19.378;2024-03-08T06:08:07;99900.80;;;10.29;45.50
58785;BME280;44557;51.862;19.378;2024-03-08T06:10:11;99902.50;;;10.57;45.20
58785;BME280;44557;51.862;19.378;2024-03-08T06:12:14;99901.70;;;11.22;43.53
58785;BME280;44557;51.862;19.378;2024-03-08T06:14:21;99897.25;;;11.31;43.41
58785;BME280;44557;51.862;19.378;2024-03-08T06:16:23;99900.52;;;11.36;43.37
58785;BME280;44557;51.862;19.378;2024-03-08T06:18:24;99902.36;;;11.53;43.02
58785;BME280;44557;51.862;19.378;2024-03-08T06:20:26;99902.32;;;11.75;41.83
58785;BME280;44557;51.862;19.378;2024-03-08T06:22:28;99903.07;;;11.36;42.98
58785;BME280;44557;51.862;19.378;2024-03-08T06:24:32;99903.33;;;10.73;44.41
58785;BME280;44557;51.862;19.378;2024-03-08T06:26:34;99906.16;;;10.09;45.82
58785;BME280;44557;51.862;19.378;2024-03-08T06:28:35;99906.55;;;9.98;46.17
58785;BME280;44557;51.862;19.378;2024-03-08T06:30:37;99912.42;;;9.76;46.95
58785;BME280;44557;51.862;19.378;2024-03-08T06:32:39;99909.41;;;9.84;47.34
58785;BME280;44557;51.862;19.378;2024-03-08T06:34:41;99909.41;;;10.44;46.05
58785;BME280;44557;51.862;19.378;2024-03-08T06:36:44;99907.16;;;10.40;45.89
58785;BME280;44557;51.862;19.378;2024-03-08T06:38:45;99906.01;;;10.76;45.21
58785;BME280;44557;51.862;19.378;2024-03-08T06:40:47;99904.98;;;10.70;45.24
58785;BME280;44557;51.862;19.378;2024-03-08T06:42:49;99905.80;;;11.08;44.35
58785;BME280;44557;51.862;19.378;2024-03-08T06:44:53;99901.71;;;11.56;43.28
58785;BME280;44557;51.862;19.378;2024-03-08T06:46:57;99902.99;;;11.31;43.34
58785;BME280;44557;51.862;19.378;2024-03-08T06:49:00;99902.52;;;11.85;42.06
58785;BME280;44557;51.862;19.378;2024-03-08T06:51:01;99902.75;;;12.07;41.94
58785;BME280;44557;51.862;19.378;2024-03-08T06:53:03;99900.42;;;12.05;41.76
58785;BME280;44557;51.862;19.378;2024-03-08T06:55:06;99899.95;;;12.21;41.46
58785;BME280;44557;51.862;19.378;2024-03-08T06:57:07;99896.83;;;12.32;41.03
58785;BME280;44557;51.862;19.378;2024-03-08T06:59:12;99893.40;;;12.47;40.34
58785;BME280;44557;51.862;19.378;2024-03-08T07:01:13;99891.95;;;12.17;41.36
58785;BME280;44557;51.862;19.378;2024-03-08T07:03:16;99889.73;;;12.41;40.77
58785;BME280;44557;51.862;19.378;2024-03-08T07:05:19;99889.73;;;12.33;40.99
58785;BME280;44557;51.862;19.378;2024-03-08T07:07:21;99887.06;;;12.22;41.19
58785;BME280;44557;51.862;19.378;2024-03-08T07:09:26;99886.48;;;12.26;41.20
58785;BME280;44557;51.862;19.378;2024-03-08T07:11:27;99887.31;;;12.15;41.48
58785;BME280;44557;51.862;19.378;2024-03-08T07:13:30;99887.17;;;12.47;40.84
58785;BME280;44557;51.862;19.378;2024-03-08T07:15:32;99888.23;;;12.61;40.70
58785;BME280;44557;51.862;19.378;2024-03-08T07:17:34;99892.48;;;12.78;40.15
58785;BME280;44557;51.862;19.378;2024-03-08T07:19:36;99889.33;;;13.19;40.05
58785;BME280;44557;51.862;19.378;2024-03-08T07:21:40;99890.02;;;13.00;39.69
58785;BME280;44557;51.862;19.378;2024-03-08T07:23:41;99889.21;;;12.74;40.53
58785;BME280;44557;51.862;19.378;2024-03-08T07:26:09;99893.56;;;13.15;39.86
58785;BME280;44557;51.862;19.378;2024-03-08T07:28:11;99889.95;;;12.51;40.77
58785;BME280;44557;51.862;19.378;2024-03-08T07:30:14;99888.63;;;12.51;40.98
58785;BME280;44557;51.862;19.378;2024-03-08T07:32:36;99891.24;;;12.90;40.44
58785;BME280;44557;51.862;19.378;2024-03-08T07:34:38;99891.76;;;12.84;40.48
58785;BME280;44557;51.862;19.378;2024-03-08T07:36:41;99889.91;;;12.10;41.56
58785;BME280;44557;51.862;19.378;2024-03-08T07:38:42;99890.61;;;12.51;41.08
58785;BME280;44557;51.862;19.378;2024-03-08T07:40:45;99886.73;;;12.05;41.71
58785;BME280;44557;51.862;19.378;2024-03-08T07:42:47;99887.29;;;12.88;40.79
58785;BME280;44557;51.862;19.378;2024-03-08T07:44:48;99886.89;;;13.60;39.38
58785;BME280;44557;51.862;19.378;2024-03-08T07:46:51;99885.67;;;13.26;39.75
58785;BME280;44557;51.862;19.378;2024-03-08T07:48:53;99888.86;;;12.90;39.92
58785;BME280;44557;51.862;19.378;2024-03-08T07:50:55;99887.64;;;12.77;40.30
58785;BME280;44557;51.862;19.378;2024-03-08T07:52:56;99885.83;;;12.79;40.62
58785;BME280;44557;51.862;19.378;2024-03-08T07:54:58;99887.92;;;12.27;41.44
58785;BME280;44557;51.862;19.378;2024-03-08T07:57:00;99884.55;;;12.39;41.28
58785;BME280;44557;51.862;19.378;2024-03-08T07:59:04;99886.19;;;12.36;41.16
58785;BME280;44557;51.862;19.378;2024-03-08T08:01:06;99886.83;;;11.87;42.41
58785;BME280;44557;51.862;19.378;2024-03-08T08:03:08;99881.67;;;12.58;41.50
58785;BME280;44557;51.862;19.378;2024-03-08T08:05:10;99878.20;;;12.71;40.98
58785;BME280;44557;51.862;19.378;2024-03-08T08:07:12;99878.23;;;11.96;41.96
58785;BME280;44557;51.862;19.378;2024-03-08T08:09:13;99878.28;;;11.71;42.60
58785;BME280;44557;51.862;19.378;2024-03-08T08:11:16;99876.80;;;11.96;42.43
58785;BME280;44557;51.862;19.378;2024-03-08T08:13:17;99876.75;;;11.85;42.63
58785;BME280;44557;51.862;19.378;2024-03-08T08:15:20;99872.79;;;12.02;42.11
58785;BME280;44557;51.862;19.378;2024-03-08T08:17:22;99875.70;;;12.99;41.01
58785;BME280;44557;51.862;19.378;2024-03-08T08:19:24;99875.08;;;12.94;41.14
58785;BME280;44557;51.862;19.378;2024-03-08T08:21:27;99883.05;;;12.76;41.25
58785;BME280;44557;51.862;19.378;2024-03-08T08:23:29;99882.05;;;12.87;40.47
58785;BME280;44557;51.862;19.378;2024-03-08T08:25:31;99879.15;;;12.88;40.70
58785;BME280;44557;51.862;19.378;2024-03-08T08:27:35;99879.05;;;12.21;40.79
58785;BME280;44557;51.862;19.378;2024-03-08T08:29:41;99877.96;;;11.47;42.08
58785;BME280;44557;51.862;19.378;2024-03-08T08:31:44;99878.50;;;11.70;41.30
58785;BME280;44557;51.862;19.378;2024-03-08T08:33:46;99875.33;;;12.15;40.94
58785;BME280;44557;51.862;19.378;2024-03-08T08:35:50;99879.15;;;11.71;41.44
58785;BME280;44557;51.862;19.378;2024-03-08T08:37:55;99875.63;;;12.86;40.26
58785;BME280;44557;51.862;19.378;2024-03-08T08:39:57;99874.30;;;12.90;39.87
58785;BME280;44557;51.862;19.378;2024-03-08T08:41:59;99875.90;;;12.86;39.62
58785;BME280;44557;51.862;19.378;2024-03-08T08:44:00;99875.31;;;12.27;40.62
58785;BME280;44557;51.862;19.378;2024-03-08T08:46:02;99878.44;;;11.64;41.49
58785;BME280;44557;51.862;19.378;2024-03-08T08:48:04;99875.98;;;11.57;41.72
58785;BME280;44557;51.862;19.378;2024-03-08T08:50:07;99876.96;;;12.06;41.54
58785;BME280;44557;51.862;19.378;2024-03-08T08:52:08;99871.53;;;11.87;41.43
58785;BME280;44557;51.862;19.378;2024-03-08T08:54:10;99872.34;;;11.72;41.62
58785;BME280;44557;51.862;19.378;2024-03-08T08:56:13;99869.73;;;11.36;42.44
58785;BME280;44557;51.862;19.378;2024-03-08T08:58:15;99872.67;;;11.66;42.49
58785;BME280;44557;51.862;19.378;2024-03-08T09:00:17;99866.23;;;11.81;42.27
58785;BME280;44557;51.862;19.378;2024-03-08T09:02:20;99864.98;;;12.52;40.41
58785;BME280;44557;51.862;19.378;2024-03-08T09:04:22;99861.96;;;12.08;40.31
58785;BME280;44557;51.862;19.378;2024-03-08T09:06:24;99860.70;;;12.46;40.50
58785;BME280;44557;51.862;19.378;2024-03-08T09:08:27;99858.60;;;12.75;39.70
58785;BME280;44557;51.862;19.378;2024-03-08T09:10:30;99862.33;;;11.36;40.59
58785;BME280;44557;51.862;19.378;2024-03-08T09:12:32;99859.06;;;10.88;41.75
58785;BME280;44557;51.862;19.378;2024-03-08T09:14:34;99858.31;;;11.03;40.77
58785;BME280;44557;51.862;19.378;2024-03-08T09:16:36;99856.92;;;11.45;40.81
58785;BME280;44557;51.862;19.378;2024-03-08T09:18:38;99854.00;;;12.30;39.94
58785;BME280;44557;51.862;19.378;2024-03-08T09:20:40;99851.28;;;11.16;39.94
58785;BME280;44557;51.862;19.378;2024-03-08T09:22:45;99855.19;;;10.80;41.07
58785;BME280;44557;51.862;19.378;2024-03-08T09:24:47;99854.31;;;10.37;42.30
58785;BME280;44557;51.862;19.378;2024-03-08T09:26:49;99848.10;;;10.76;41.81
58785;BME280;44557;51.862;19.378;2024-03-08T09:28:51;99844.72;;;11.19;40.61
58785;BME280;44557;51.862;19.378;2024-03-08T09:30:52;99845.25;;;11.58;40.60
58785;BME280;44557;51.862;19.378;2024-03-08T09:32:54;99842.73;;;12.33;39.14
58785;BME280;44557;51.862;19.378;2024-03-08T09:34:56;99839.09;;;12.32;38.57
58785;BME280;44557;51.862;19.378;2024-03-08T09:36:57;99839.19;;;12.36;39.19
58785;BME280;44557;51.862;19.378;2024-03-08T09:38:59;99840.27;;;11.60;39.70
58785;BME280;44557;51.862;19.378;2024-03-08T09:41:02;99835.77;;;11.18;40.04
58785;BME280;44557;51.862;19.378;2024-03-08T09:43:05;99837.81;;;11.05;40.75
58785;BME280;44557;51.862;19.378;2024-03-08T09:45:11;99836.82;;;12.11;39.95
58785;BME280;44557;51.862;19.378;2024-03-08T09:47:14;99825.70;;;12.66;38.76
58785;BME280;44557;51.862;19.378;2024-03-08T09:49:15;99826.59;;;13.24;37.74
58785;BME280;44557;51.862;19.378;2024-03-08T09:51:24;99823.69;;;13.17;37.41
58785;BME280;44557;51.862;19.378;2024-03-08T09:53:28;99822.59;;;13.42;37.12
58785;BME280;44557;51.862;19.378;2024-03-08T09:55:32;99823.47;;;13.31;37.14
58785;BME280;44557;51.862;19.378;2024-03-08T09:57:36;99821.45;;;13.42;37.11
58785;BME280;44557;51.862;19.378;2024-03-08T09:59:38;99820.48;;;13.58;36.80
58785;BME280;44557;51.862;19.378;2024-03-08T10:01:40;99818.27;;;12.48;38.16
58785;BME280;44557;51.862;19.378;2024-03-08T10:03:41;99821.31;;;11.68;39.83
58785;BME280;44557;51.862;19.378;2024-03-08T10:05:44;99820.70;;;11.57;39.95
58785;BME280;44557;51.862;19.378;2024-03-08T10:07:48;99815.32;;;12.03;40.09
58785;BME280;44557;51.862;19.378;2024-03-08T10:09:52;99814.64;;;11.84;40.70
58785;BME280;44557;51.862;19.378;2024-03-08T10:11:57;99813.27;;;11.84;40.19
58785;BME280;44557;51.862;19.378;2024-03-08T10:14:02;99811.15;;;12.15;39.68
58785;BME280;44557;51.862;19.378;2024-03-08T10:16:04;99810.00;;;11.94;38.95
58785;BME280;44557;51.862;19.378;2024-03-08T10:18:07;99806.50;;;12.04;38.71
58785;BME280;44557;51.862;19.378;2024-03-08T10:20:18;99807.63;;;11.74;38.76
58785;BME280;44557;51.862;19.378;2024-03-08T10:22:20;99807.93;;;11.48;39.26
58785;BME280;44557;51.862;19.378;2024-03-08T10:24:23;99800.98;;;11.73;39.07
58785;BME280;44557;51.862;19.378;2024-03-08T10:26:27;99798.02;;;12.78;37.84
58785;BME280;44557;51.862;19.378;2024-03-08T10:28:29;99796.91;;;13.23;36.88
58785;BME280;44557;51.862;19.378;2024-03-08T10:30:31;99795.16;;;12.87;37.03
58785;BME280;44557;51.862;19.378;2024-03-08T10:32:33;99797.94;;;13.55;36.72
58785;BME280;44557;51.862;19.378;2024-03-08T10:34:35;99793.48;;;13.52;36.44
58785;BME280;44557;51.862;19.378;2024-03-08T10:36:39;99794.57;;;12.86;36.12
58785;BME280;44557;51.862;19.378;2024-03-08T10:38:43;99789.23;;;14.02;34.73
58785;BME280;44557;51.862;19.378;2024-03-08T10:40:48;99792.85;;;13.86;34.95
58785;BME280;44557;51.862;19.378;2024-03-08T10:42:58;99788.96;;;13.42;35.55
58785;BME280;44557;51.862;19.378;2024-03-08T10:45:15;99788.95;;;13.19;36.08